sensor_id;sensor_type;location;lat;lon;timestamp;P1;durP1;ratioP1;P2;durP2;ratioP2
78209;SDS011;67485;48.816;9.930;2023-03-08T00:00:10;7.22;;;3.47;;
78209;SDS011;67485;48.816;9.930;2023-03-08T00:02:39;7.97;;;3.90;;
78209;SDS011;67485;48.816;9.930;2023-03-08T00:05:05;8.35;;;3.65;;
78209;SDS011;67485;48.816;9.930;2023-03-08T00:07:32;7.38;;;3.90;;
78209;SDS011;67485;48.816;9.930;2023-03-08T00:09:58;6.60;;;3.43;;
78209;SDS011;67485;48.816;9.930;2023-03-08T00:12:23;7.75;;;4.10;;
78209;SDS011;67485;48.816;9.930;2023-03-08T00:14:49;9.63;;;3.63;;
78209;SDS011;67485;48.816;9.930;2023-03-08T00:17:16;9.80;;;3.97;;
78209;SDS011;67485;48.816;9.930;2023-03-08T00:19:42;8.05;;;3.80;;
78209;SDS011;67485;48.816;9.930;2023-03-08T00:22:09;7.45;;;4.10;;
78209;SDS011;67485;48.816;9.930;2023-03-08T00:24:36;9.48;;;4.22;;
78209;SDS011;67485;48.816;9.930;2023-03-08T00:27:02;8.10;;;3.83;;
78209;SDS011;67485;48.816;9.930;2023-03-08T00:29:28;8.50;;;3.80;;
78209;SDS011;67485;48.816;9.930;2023-03-08T00:31:55;7.78;;;4.03;;
78209;SDS011;67485;48.816;9.930;2023-03-08T00:34:21;8.07;;;3.73;;
78209;SDS011;67485;48.816;9.930;2023-03-08T00:36:47;11.00;;;4.22;;
78209;SDS011;67485;48.816;9.930;2023-03-08T00:39:16;7.10;;;3.92;;
78209;SDS011;67485;48.816;9.930;2023-03-08T00:41:42;8.02;;;3.85;;
78209;SDS011;67485;48.816;9.930;2023-03-08T00:44:08;8.98;;;4.10;;
78209;SDS011;67485;48.816;9.930;2023-03-08T00:46:34;8.23;;;3.83;;
78209;SDS011;67485;48.816;9.930;2023-03-08T00:48:59;7.60;;;3.72;;
78209;SDS011;67485;48.816;9.930;2023-03-08T00:51:25;7.87;;;4.50;;
78209;SDS011;67485;48.816;9.930;2023-03-08T00:53:51;8.65;;;4.00;;
78209;SDS011;67485;48.816;9.930;2023-03-08T00:56:17;9.25;;;3.83;;
78209;SDS011;67485;48.816;9.930;2023-03-08T00:58:44;9.07;;;3.90;;
78209;SDS011;67485;48.816;9.930;2023-03-08T01:01:12;8.10;;;4.30;;
78209;SDS011;67485;48.816;9.930;2023-03-08T01:03:41;9.98;;;4.20;;
78209;SDS011;67485;48.816;9.930;2023-03-08T01:06:08;7.35;;;3.58;;
78209;SDS011;67485;48.816;9.930;2023-03-08T01:08:35;9.38;;;4.65;;
78209;SDS011;67485;48.816;9.930;2023-03-08T01:11:01;7.37;;;4.13;;
78209;SDS011;67485;48.816;9.930;2023-03-08T01:13:31;7.63;;;3.97;;
78209;SDS011;67485;48.816;9.930;2023-03-08T01:15:59;9.35;;;4.22;;
78209;SDS011;67485;48.816;9.930;2023-03-08T01:18:25;8.38;;;4.13;;
78209;SDS011;67485;48.816;9.930;2023-03-08T01:20:55;7.83;;;3.73;;
78209;SDS011;67485;48.816;9.930;2023-03-08T01:23:25;10.07;;;4.30;;
78209;SDS011;67485;48.816;9.930;2023-03-08T01:26:02;8.55;;;4.30;;
78209;SDS011;67485;48.816;9.930;2023-03-08T01:28:29;8.88;;;3.95;;
78209;SDS011;67485;48.816;9.930;2023-03-08T01:33:49;9.05;;;4.10;;
78209;SDS011;67485;48.816;9.930;2023-03-08T01:36:16;8.30;;;4.38;;
78209;SDS011;67485;48.816;9.930;2023-03-08T01:38:44;7.83;;;4.20;;
78209;SDS011;67485;48.816;9.930;2023-03-08T01:41:13;8.40;;;4.10;;
78209;SDS011;67485;48.816;9.930;2023-03-08T01:43:41;7.68;;;3.88;;
78209;SDS011;67485;48.816;9.930;2023-03-08T01:51:18;7.40;;;4.10;;
78209;SDS011;67485;48.816;9.930;2023-03-08T01:53:58;7.55;;;3.90;;
78209;SDS011;67485;48.816;9.930;2023-03-08T01:56:29;9.07;;;4.30;;
78209;SDS011;67485;48.816;9.930;2023-03-08T01:58:55;9.13;;;3.92;;
78209;SDS011;67485;48.816;9.930;2023-03-08T02:01:21;9.20;;;3.80;;
78209;SDS011;67485;48.816;9.930;2023-03-08T02:03:49;9.57;;;4.23;;
78209;SDS011;67485;48.816;9.930;2023-03-08T02:06:18;7.80;;;4.05;;
78209;SDS011;67485;48.816;9.930;2023-03-08T02:08:44;9.13;;;4.30;;
78209;SDS011;67485;48.816;9.930;2023-03-08T02:11:10;8.52;;;3.90;;
78209;SDS011;67485;48.816;9.930;2023-03-08T02:13:38;9.30;;;4.07;;
78209;SDS011;67485;48.816;9.930;2023-03-08T02:16:05;10.05;;;4.10;;
78209;SDS011;67485;48.816;9.930;2023-03-08T02:18:34;8.38;;;4.30;;
78209;SDS011;67485;48.816;9.930;2023-03-08T02:21:00;8.90;;;4.37;;
78209;SDS011;67485;48.816;9.930;2023-03-08T02:23:25;9.02;;;4.05;;
78209;SDS011;67485;48.816;9.930;2023-03-08T02:25:56;9.68;;;4.18;;
78209;SDS011;67485;48.816;9.930;2023-03-08T02:28:27;8.73;;;4.40;;
78209;SDS011;67485;48.816;9.930;2023-03-08T02:30:55;8.60;;;4.27;;
78209;SDS011;67485;48.816;9.930;2023-03-08T02:33:21;8.85;;;4.53;;
78209;SDS011;67485;48.816;9.930;2023-03-08T02:35:48;6.97;;;3.95;;
78209;SDS011;67485;48.816;9.930;2023-03-08T02:38:15;9.45;;;4.00;;
78209;SDS011;67485;48.816;9.930;2023-03-08T02:40:42;11.03;;;3.80;;
78209;SDS011;67485;48.816;9.930;2023-03-08T02:43:08;8.57;;;4.20;;
78209;SDS011;67485;48.816;9.930;2023-03-08T02:45:38;8.50;;;4.47;;
78209;SDS011;67485;48.816;9.930;2023-03-08T02:48:04;7.70;;;4.10;;
78209;SDS011;67485;48.816;9.930;2023-03-08T02:50:30;10.05;;;4.45;;
78209;SDS011;67485;48.816;9.930;2023-03-08T02:52:57;8.60;;;4.45;;
78209;SDS011;67485;48.816;9.930;2023-03-08T02:55:24;9.38;;;4.55;;
78209;SDS011;67485;48.816;9.930;2023-03-08T02:57:50;8.15;;;4.15;;
78209;SDS011;67485;48.816;9.930;2023-03-08T03:00:17;8.73;;;4.07;;
78209;SDS011;67485;48.816;9.930;2023-03-08T03:02:43;9.43;;;4.70;;
78209;SDS011;67485;48.816;9.930;2023-03-08T03:05:08;8.83;;;4.30;;
78209;SDS011;67485;48.816;9.930;2023-03-08T03:07:40;8.63;;;4.50;;
78209;SDS011;67485;48.816;9.930;2023-03-08T03:10:11;11.23;;;4.47;;
78209;SDS011;67485;48.816;9.930;2023-03-08T03:12:38;10.57;;;4.43;;
78209;SDS011;67485;48.816;9.930;2023-03-08T03:15:07;9.55;;;4.78;;
78209;SDS011;67485;48.816;9.930;2023-03-08T03:17:34;8.55;;;4.03;;
78209;SDS011;67485;48.816;9.930;2023-03-08T03:20:03;7.45;;;4.10;;
78209;SDS011;67485;48.816;9.930;2023-03-08T03:22:31;11.13;;;4.75;;
78209;SDS011;67485;48.816;9.930;2023-03-08T03:24:57;10.53;;;4.70;;
78209;SDS011;67485;48.816;9.930;2023-03-08T03:27:22;7.85;;;4.45;;
78209;SDS011;67485;48.816;9.930;2023-03-08T03:29:49;9.52;;;4.60;;
78209;SDS011;67485;48.816;9.930;2023-03-08T03:32:16;7.85;;;4.13;;
78209;SDS011;67485;48.816;9.930;2023-03-08T03:34:42;8.98;;;4.35;;
78209;SDS011;67485;48.816;9.930;2023-03-08T03:37:08;10.13;;;3.95;;
78209;SDS011;67485;48.816;9.930;2023-03-08T03:39:37;10.88;;;4.90;;
78209;SDS011;67485;48.816;9.930;2023-03-08T03:42:06;8.73;;;4.50;;
78209;SDS011;67485;48.816;9.930;2023-03-08T03:44:33;8.53;;;4.50;;
78209;SDS011;67485;48.816;9.930;2023-03-08T03:46:59;8.10;;;4.32;;
78209;SDS011;67485;48.816;9.930;2023-03-08T03:49:27;9.20;;;4.45;;
78209;SDS011;67485;48.816;9.930;2023-03-08T03:51:53;10.52;;;4.95;;
78209;SDS011;67485;48.816;9.930;2023-03-08T03:54:35;11.48;;;5.03;;
78209;SDS011;67485;48.816;9.930;2023-03-08T03:57:01;8.70;;;4.67;;
78209;SDS011;67485;48.816;9.930;2023-03-08T03:59:31;8.88;;;4.70;;
78209;SDS011;67485;48.816;9.930;2023-03-08T04:01:58;8.10;;;4.28;;
78209;SDS011;67485;48.816;9.930;2023-03-08T04:04:32;10.55;;;4.93;;
78209;SDS011;67485;48.816;9.930;2023-03-08T04:06:58;9.25;;;4.70;;
78209;SDS011;67485;48.816;9.930;2023-03-08T04:09:28;8.90;;;4.53;;
78209;SDS011;67485;48.816;9.930;2023-03-08T04:12:05;11.38;;;5.07;;
78209;SDS011;67485;48.816;9.930;2023-03-08T04:14:32;11.25;;;5.60;;
78209;SDS011;67485;48.816;9.930;2023-03-08T04:16:58;19.27;;;7.83;;
78209;SDS011;67485;48.816;9.930;2023-03-08T04:19:30;18.92;;;8.65;;
78209;SDS011;67485;48.816;9.930;2023-03-08T04:21:57;14.18;;;6.78;;
78209;SDS011;67485;48.816;9.930;2023-03-08T04:24:29;14.82;;;6.13;;
78209;SDS011;67485;48.816;9.930;2023-03-08T04:26:59;11.63;;;6.07;;
78209;SDS011;67485;48.816;9.930;2023-03-08T04:29:26;15.40;;;7.07;;
78209;SDS011;67485;48.816;9.930;2023-03-08T04:31:52;16.23;;;7.53;;
78209;SDS011;67485;48.816;9.930;2023-03-08T04:34:20;14.35;;;6.20;;
78209;SDS011;67485;48.816;9.930;2023-03-08T04:36:48;16.40;;;6.75;;
78209;SDS011;67485;48.816;9.930;2023-03-08T04:39:14;11.98;;;5.60;;
78209;SDS011;67485;48.816;9.930;2023-03-08T04:41:40;9.65;;;4.72;;
78209;SDS011;67485;48.816;9.930;2023-03-08T04:44:26;10.35;;;4.45;;
78209;SDS011;67485;48.816;9.930;2023-03-08T04:46:52;11.18;;;5.95;;
78209;SDS011;67485;48.816;9.930;2023-03-08T04:49:40;11.30;;;5.45;;
78209;SDS011;67485;48.816;9.930;2023-03-08T04:52:06;10.37;;;4.83;;
78209;SDS011;67485;48.816;9.930;2023-03-08T04:54:33;11.60;;;5.38;;
78209;SDS011;67485;48.816;9.930;2023-03-08T04:57:14;12.98;;;5.35;;
78209;SDS011;67485;48.816;9.930;2023-03-08T04:59:42;9.88;;;5.10;;
78209;SDS011;67485;48.816;9.930;2023-03-08T05:02:08;13.40;;;5.47;;
78209;SDS011;67485;48.816;9.930;2023-03-08T05:04:35;9.70;;;4.80;;
78209;SDS011;67485;48.816;9.930;2023-03-08T05:07:01;12.32;;;5.82;;
78209;SDS011;67485;48.816;9.930;2023-03-08T05:09:30;10.07;;;5.28;;
78209;SDS011;67485;48.816;9.930;2023-03-08T05:11:56;11.47;;;5.20;;
78209;SDS011;67485;48.816;9.930;2023-03-08T05:14:24;11.82;;;5.25;;
78209;SDS011;67485;48.816;9.930;2023-03-08T05:16:53;10.07;;;4.60;;
78209;SDS011;67485;48.816;9.930;2023-03-08T05:19:20;10.05;;;4.97;;
78209;SDS011;67485;48.816;9.930;2023-03-08T05:21:49;11.95;;;5.82;;
78209;SDS011;67485;48.816;9.930;2023-03-08T05:24:16;12.95;;;5.57;;
78209;SDS011;67485;48.816;9.930;2023-03-08T05:26:41;10.93;;;5.30;;
78209;SDS011;67485;48.816;9.930;2023-03-08T05:29:09;9.40;;;4.60;;
78209;SDS011;67485;48.816;9.930;2023-03-08T05:31:36;10.43;;;5.25;;
78209;SDS011;67485;48.816;9.930;2023-03-08T05:34:05;12.05;;;5.63;;
78209;SDS011;67485;48.816;9.930;2023-03-08T05:36:35;13.20;;;5.60;;
78209;SDS011;67485;48.816;9.930;2023-03-08T05:39:02;12.35;;;5.38;;
78209;SDS011;67485;48.816;9.930;2023-03-08T05:41:35;11.82;;;5.95;;
78209;SDS011;67485;48.816;9.930;2023-03-08T05:44:03;11.38;;;5.80;;
78209;SDS011;67485;48.816;9.930;2023-03-08T05:46:31;11.93;;;6.10;;
78209;SDS011;67485;48.816;9.930;2023-03-08T05:48:58;11.32;;;5.65;;
78209;SDS011;67485;48.816;9.930;2023-03-08T05:51:24;10.75;;;5.50;;
78209;SDS011;67485;48.816;9.930;2023-03-08T05:53:52;15.27;;;6.22;;
78209;SDS011;67485;48.816;9.930;2023-03-08T05:56:19;11.52;;;5.72;;
78209;SDS011;67485;48.816;9.930;2023-03-08T05:58:56;13.00;;;6.10;;
78209;SDS011;67485;48.816;9.930;2023-03-08T06:01:25;10.18;;;5.10;;
78209;SDS011;67485;48.816;9.930;2023-03-08T06:03:56;11.13;;;4.75;;
78209;SDS011;67485;48.816;9.930;2023-03-08T06:06:24;10.02;;;4.40;;
78209;SDS011;67485;48.816;9.930;2023-03-08T06:08:52;10.20;;;4.80;;
78209;SDS011;67485;48.816;9.930;2023-03-08T06:11:21;9.32;;;4.60;;
78209;SDS011;67485;48.816;9.930;2023-03-08T06:13:48;9.30;;;5.22;;
78209;SDS011;67485;48.816;9.930;2023-03-08T06:16:14;14.35;;;6.18;;
78209;SDS011;67485;48.816;9.930;2023-03-08T06:18:41;11.90;;;5.93;;
78209;SDS011;67485;48.816;9.930;2023-03-08T06:21:18;11.52;;;5.30;;
78209;SDS011;67485;48.816;9.930;2023-03-08T06:23:49;9.82;;;5.10;;
78209;SDS011;67485;48.816;9.930;2023-03-08T06:26:16;9.55;;;4.32;;
78209;SDS011;67485;48.816;9.930;2023-03-08T06:28:42;9.77;;;4.88;;
78209;SDS011;67485;48.816;9.930;2023-03-08T06:31:11;12.40;;;5.65;;
78209;SDS011;67485;48.816;9.930;2023-03-08T06:33:38;11.63;;;5.38;;
78209;SDS011;67485;48.816;9.930;2023-03-08T06:36:08;11.13;;;5.40;;
78209;SDS011;67485;48.816;9.930;2023-03-08T06:38:37;14.18;;;5.85;;
78209;SDS011;67485;48.816;9.930;2023-03-08T06:41:04;12.07;;;5.18;;
78209;SDS011;67485;48.816;9.930;2023-03-08T06:43:31;13.57;;;5.55;;
78209;SDS011;67485;48.816;9.930;2023-03-08T06:45:57;12.57;;;5.88;;
78209;SDS011;67485;48.816;9.930;2023-03-08T06:48:23;14.50;;;5.68;;
78209;SDS011;67485;48.816;9.930;2023-03-08T06:50:50;10.63;;;6.00;;
78209;SDS011;67485;48.816;9.930;2023-03-08T06:53:16;15.35;;;6.35;;
78209;SDS011;67485;48.816;9.930;2023-03-08T06:55:52;16.73;;;6.65;;
78209;SDS011;67485;48.816;9.930;2023-03-08T06:58:18;12.15;;;6.28;;
78209;SDS011;67485;48.816;9.930;2023-03-08T07:00:44;10.95;;;6.05;;
78209;SDS011;67485;48.816;9.930;2023-03-08T07:03:10;14.77;;;6.35;;
78209;SDS011;67485;48.816;9.930;2023-03-08T07:05:36;16.08;;;6.95;;
78209;SDS011;67485;48.816;9.930;2023-03-08T07:08:02;14.27;;;7.00;;
78209;SDS011;67485;48.816;9.930;2023-03-08T07:10:28;14.55;;;7.03;;
78209;SDS011;67485;48.816;9.930;2023-03-08T07:12:54;11.50;;;5.82;;
78209;SDS011;67485;48.816;9.930;2023-03-08T07:15:21;12.07;;;6.27;;
78209;SDS011;67485;48.816;9.930;2023-03-08T07:17:48;17.13;;;6.60;;
78209;SDS011;67485;48.816;9.930;2023-03-08T07:20:16;13.75;;;6.82;;
78209;SDS011;67485;48.816;9.930;2023-03-08T07:22:43;15.88;;;7.32;;
78209;SDS011;67485;48.816;9.930;2023-03-08T07:25:10;13.88;;;6.85;;
78209;SDS011;67485;48.816;9.930;2023-03-08T07:27:37;14.23;;;7.17;;
78209;SDS011;67485;48.816;9.930;2023-03-08T07:30:03;12.15;;;6.38;;
78209;SDS011;67485;48.816;9.930;2023-03-08T07:32:29;14.43;;;7.47;;
78209;SDS011;67485;48.816;9.930;2023-03-08T07:34:55;13.90;;;7.57;;
78209;SDS011;67485;48.816;9.930;2023-03-08T07:37:22;15.68;;;7.93;;
78209;SDS011;67485;48.816;9.930;2023-03-08T07:39:48;19.45;;;7.90;;
78209;SDS011;67485;48.816;9.930;2023-03-08T07:42:13;13.67;;;7.30;;
78209;SDS011;67485;48.816;9.930;2023-03-08T07:44:43;14.80;;;7.13;;
78209;SDS011;67485;48.816;9.930;2023-03-08T07:47:08;16.50;;;8.18;;
78209;SDS011;67485;48.816;9.930;2023-03-08T07:49:34;17.67;;;8.77;;
78209;SDS011;67485;48.816;9.930;2023-03-08T07:52:00;17.57;;;8.40;;
78209;SDS011;67485;48.816;9.930;2023-03-08T07:54:26;18.33;;;8.48;;
78209;SDS011;67485;48.816;9.930;2023-03-08T07:56:52;15.10;;;8.30;;
78209;SDS011;67485;48.816;9.930;2023-03-08T07:59:18;18.30;;;7.53;;
78209;SDS011;67485;48.816;9.930;2023-03-08T08:01:44;15.10;;;7.80;;
78209;SDS011;67485;48.816;9.930;2023-03-08T08:04:10;19.17;;;7.90;;
78209;SDS011;67485;48.816;9.930;2023-03-08T08:06:37;14.52;;;8.38;;
78209;SDS011;67485;48.816;9.930;2023-03-08T08:09:03;18.08;;;8.10;;
78209;SDS011;67485;48.816;9.930;2023-03-08T08:11:29;15.93;;;7.68;;
78209;SDS011;67485;48.816;9.930;2023-03-08T08:13:55;14.32;;;7.70;;
78209;SDS011;67485;48.816;9.930;2023-03-08T08:16:20;15.77;;;7.63;;
78209;SDS011;67485;48.816;9.930;2023-03-08T08:18:46;18.38;;;7.88;;
78209;SDS011;67485;48.816;9.930;2023-03-08T08:21:13;17.47;;;7.53;;
78209;SDS011;67485;48.816;9.930;2023-03-08T08:23:40;17.38;;;7.75;;
78209;SDS011;67485;48.816;9.930;2023-03-08T08:26:08;15.70;;;7.78;;
78209;SDS011;67485;48.816;9.930;2023-03-08T08:28:36;17.45;;;8.30;;
78209;SDS011;67485;48.816;9.930;2023-03-08T08:31:04;14.48;;;7.90;;
78209;SDS011;67485;48.816;9.930;2023-03-08T08:33:32;16.15;;;8.48;;
78209;SDS011;67485;48.816;9.930;2023-03-08T08:35:58;19.58;;;8.73;;
78209;SDS011;67485;48.816;9.930;2023-03-08T08:38:25;18.27;;;8.30;;
78209;SDS011;67485;48.816;9.930;2023-03-08T08:40:51;17.92;;;8.48;;
78209;SDS011;67485;48.816;9.930;2023-03-08T08:43:17;16.70;;;8.30;;
78209;SDS011;67485;48.816;9.930;2023-03-08T08:45:43;14.60;;;7.85;;
78209;SDS011;67485;48.816;9.930;2023-03-08T08:48:11;17.65;;;8.65;;
78209;SDS011;67485;48.816;9.930;2023-03-08T08:50:37;18.63;;;8.00;;
78209;SDS011;67485;48.816;9.930;2023-03-08T08:53:04;16.10;;;7.50;;
78209;SDS011;67485;48.816;9.930;2023-03-08T08:55:30;14.45;;;7.47;;
78209;SDS011;67485;48.816;9.930;2023-03-08T08:57:56;13.17;;;7.30;;
78209;SDS011;67485;48.816;9.930;2023-03-08T09:00:21;14.30;;;7.72;;
78209;SDS011;67485;48.816;9.930;2023-03-08T09:02:47;14.50;;;7.33;;
78209;SDS011;67485;48.816;9.930;2023-03-08T09:05:13;16.48;;;7.72;;
78209;SDS011;67485;48.816;9.930;2023-03-08T09:07:39;13.57;;;6.80;;
78209;SDS011;67485;48.816;9.930;2023-03-08T09:10:05;17.47;;;7.90;;
78209;SDS011;67485;48.816;9.930;2023-03-08T09:12:31;13.68;;;7.03;;
78209;SDS011;67485;48.816;9.930;2023-03-08T09:14:57;14.83;;;7.83;;
78209;SDS011;67485;48.816;9.930;2023-03-08T09:17:23;14.48;;;8.05;;
78209;SDS011;67485;48.816;9.930;2023-03-08T09:19:48;16.05;;;8.75;;
78209;SDS011;67485;48.816;9.930;2023-03-08T09:22:14;18.50;;;8.30;;
78209;SDS011;67485;48.816;9.930;2023-03-08T09:24:40;14.70;;;7.88;;
78209;SDS011;67485;48.816;9.930;2023-03-08T09:27:06;15.27;;;7.72;;
78209;SDS011;67485;48.816;9.930;2023-03-08T09:29:31;16.08;;;8.10;;
78209;SDS011;67485;48.816;9.930;2023-03-08T09:31:58;13.02;;;7.05;;
78209;SDS011;67485;48.816;9.930;2023-03-08T09:34:24;17.40;;;7.13;;
78209;SDS011;67485;48.816;9.930;2023-03-08T09:36:50;18.98;;;7.30;;
78209;SDS011;67485;48.816;9.930;2023-03-08T09:39:16;16.00;;;7.18;;
78209;SDS011;67485;48.816;9.930;2023-03-08T09:44:36;13.90;;;6.45;;
78209;SDS011;67485;48.816;9.930;2023-03-08T09:49:48;11.48;;;6.10;;
78209;SDS011;67485;48.816;9.930;2023-03-08T09:52:39;11.32;;;5.68;;
78209;SDS011;67485;48.816;9.930;2023-03-08T09:55:23;11.20;;;5.27;;
78209;SDS011;67485;48.816;9.930;2023-03-08T10:00:36;9.82;;;4.90;;
78209;SDS011;67485;48.816;9.930;2023-03-08T10:08:44;10.43;;;5.00;;
78209;SDS011;67485;48.816;9.930;2023-03-08T10:11:23;10.25;;;4.53;;
78209;SDS011;67485;48.816;9.930;2023-03-08T10:13:55;10.63;;;4.80;;
78209;SDS011;67485;48.816;9.930;2023-03-08T10:16:25;9.52;;;4.25;;
78209;SDS011;67485;48.816;9.930;2023-03-08T10:21:44;10.23;;;4.63;;
78209;SDS011;67485;48.816;9.930;2023-03-08T10:24:15;8.95;;;4.80;;
78209;SDS011;67485;48.816;9.930;2023-03-08T10:26:50;10.70;;;5.03;;
78209;SDS011;67485;48.816;9.930;2023-03-08T10:29:24;8.10;;;4.30;;
78209;SDS011;67485;48.816;9.930;2023-03-08T10:31:50;6.80;;;4.00;;
78209;SDS011;67485;48.816;9.930;2023-03-08T10:34:17;8.40;;;4.07;;
78209;SDS011;67485;48.816;9.930;2023-03-08T10:36:57;11.23;;;5.03;;
78209;SDS011;67485;48.816;9.930;2023-03-08T10:39:25;9.00;;;4.57;;
78209;SDS011;67485;48.816;9.930;2023-03-08T10:41:56;7.50;;;4.20;;
78209;SDS011;67485;48.816;9.930;2023-03-08T10:47:17;8.10;;;3.80;;
78209;SDS011;67485;48.816;9.930;2023-03-08T10:49:45;6.40;;;3.83;;
78209;SDS011;67485;48.816;9.930;2023-03-08T10:52:27;8.50;;;4.00;;
78209;SDS011;67485;48.816;9.930;2023-03-08T10:55:08;7.22;;;4.20;;
78209;SDS011;67485;48.816;9.930;2023-03-08T10:57:47;8.45;;;3.67;;
78209;SDS011;67485;48.816;9.930;2023-03-08T11:00:41;7.45;;;3.50;;
78209;SDS011;67485;48.816;9.930;2023-03-08T11:03:10;6.53;;;3.70;;
78209;SDS011;67485;48.816;9.930;2023-03-08T11:05:36;7.45;;;3.70;;
78209;SDS011;67485;48.816;9.930;2023-03-08T11:08:02;6.95;;;3.45;;
78209;SDS011;67485;48.816;9.930;2023-03-08T11:10:28;5.53;;;3.40;;
78209;SDS011;67485;48.816;9.930;2023-03-08T11:13:00;6.72;;;3.40;;
78209;SDS011;67485;48.816;9.930;2023-03-08T11:15:48;8.07;;;2.90;;
78209;SDS011;67485;48.816;9.930;2023-03-08T11:21:28;5.32;;;2.70;;
78209;SDS011;67485;48.816;9.930;2023-03-08T11:24:26;6.32;;;3.25;;
78209;SDS011;67485;48.816;9.930;2023-03-08T11:29:52;5.30;;;2.47;;
78209;SDS011;67485;48.816;9.930;2023-03-08T11:32:39;4.63;;;2.42;;
78209;SDS011;67485;48.816;9.930;2023-03-08T11:41:16;4.63;;;2.25;;
78209;SDS011;67485;48.816;9.930;2023-03-08T11:51:53;4.45;;;1.95;;
78209;SDS011;67485;48.816;9.930;2023-03-08T11:55:06;4.07;;;1.77;;
78209;SDS011;67485;48.816;9.930;2023-03-08T11:57:25;2.80;;;1.27;;
78209;SDS011;67485;48.816;9.930;2023-03-08T12:00:02;3.13;;;1.40;;
78209;SDS011;67485;48.816;9.930;2023-03-08T12:02:48;3.08;;;1.30;;
78209;SDS011;67485;48.816;9.930;2023-03-08T12:07:44;3.17;;;0.90;;
78209;SDS011;67485;48.816;9.930;2023-03-08T12:10:23;2.55;;;1.17;;
78209;SDS011;67485;48.816;9.930;2023-03-08T12:12:58;2.10;;;0.95;;
78209;SDS011;67485;48.816;9.930;2023-03-08T12:18:14;2.83;;;1.30;;
78209;SDS011;67485;48.816;9.930;2023-03-08T12:20:44;2.28;;;1.20;;
78209;SDS011;67485;48.816;9.930;2023-03-08T12:25:50;3.78;;;1.10;;
78209;SDS011;67485;48.816;9.930;2023-03-08T12:28:33;2.28;;;1.00;;
78209;SDS011;67485;48.816;9.930;2023-03-08T12:31:26;2.23;;;1.00;;
78209;SDS011;67485;48.816;9.930;2023-03-08T12:33:54;2.15;;;1.10;;
78209;SDS011;67485;48.816;9.930;2023-03-08T12:36:34;2.85;;;1.00;;
78209;SDS011;67485;48.816;9.930;2023-03-08T12:44:35;2.10;;;1.20;;
78209;SDS011;67485;48.816;9.930;2023-03-08T12:49:39;2.17;;;0.70;;
78209;SDS011;67485;48.816;9.930;2023-03-08T12:54:42;2.95;;;0.93;;
78209;SDS011;67485;48.816;9.930;2023-03-08T12:57:23;1.63;;;0.90;;
78209;SDS011;67485;48.816;9.930;2023-03-08T13:03:02;13.20;;;0.80;;
78209;SDS011;67485;48.816;9.930;2023-03-08T13:05:51;3.50;;;0.70;;
78209;SDS011;67485;48.816;9.930;2023-03-08T13:08:21;1.20;;;0.60;;
78209;SDS011;67485;48.816;9.930;2023-03-08T13:11:02;3.38;;;0.60;;
78209;SDS011;67485;48.816;9.930;2023-03-08T13:18:40;2.13;;;0.70;;
78209;SDS011;67485;48.816;9.930;2023-03-08T13:21:19;2.63;;;1.45;;
78209;SDS011;67485;48.816;9.930;2023-03-08T13:29:29;1.40;;;0.77;;
78209;SDS011;67485;48.816;9.930;2023-03-08T13:31:57;7.18;;;4.45;;
78209;SDS011;67485;48.816;9.930;2023-03-08T13:34:31;4.30;;;1.83;;
78209;SDS011;67485;48.816;9.930;2023-03-08T13:36:57;3.97;;;1.35;;
78209;SDS011;67485;48.816;9.930;2023-03-08T13:39:27;9.50;;;4.33;;
78209;SDS011;67485;48.816;9.930;2023-03-08T13:42:04;61.38;;;26.38;;
78209;SDS011;67485;48.816;9.930;2023-03-08T13:44:31;17.17;;;8.48;;
78209;SDS011;67485;48.816;9.930;2023-03-08T13:47:00;9.32;;;3.67;;
78209;SDS011;67485;48.816;9.930;2023-03-08T13:49:32;6.30;;;2.70;;
78209;SDS011;67485;48.816;9.930;2023-03-08T13:52:02;22.23;;;10.67;;
78209;SDS011;67485;48.816;9.930;2023-03-08T13:54:30;8.68;;;3.28;;
78209;SDS011;67485;48.816;9.930;2023-03-08T13:57:00;5.85;;;1.73;;
78209;SDS011;67485;48.816;9.930;2023-03-08T13:59:28;8.35;;;1.40;;
78209;SDS011;67485;48.816;9.930;2023-03-08T14:01:54;19.27;;;9.93;;
78209;SDS011;67485;48.816;9.930;2023-03-08T14:04:22;4.87;;;2.70;;
78209;SDS011;67485;48.816;9.930;2023-03-08T14:06:51;3.80;;;1.15;;
78209;SDS011;67485;48.816;9.930;2023-03-08T14:09:18;10.77;;;5.38;;
78209;SDS011;67485;48.816;9.930;2023-03-08T14:11:44;14.20;;;9.15;;
78209;SDS011;67485;48.816;9.930;2023-03-08T14:14:24;5.28;;;1.92;;
78209;SDS011;67485;48.816;9.930;2023-03-08T14:16:52;2.90;;;1.63;;
78209;SDS011;67485;48.816;9.930;2023-03-08T14:19:23;4.50;;;2.50;;
78209;SDS011;67485;48.816;9.930;2023-03-08T14:21:59;2.25;;;1.38;;
78209;SDS011;67485;48.816;9.930;2023-03-08T14:24:29;5.38;;;2.97;;
78209;SDS011;67485;48.816;9.930;2023-03-08T14:29:31;3.67;;;1.77;;
78209;SDS011;67485;48.816;9.930;2023-03-08T14:34:37;1.60;;;0.70;;
78209;SDS011;67485;48.816;9.930;2023-03-08T14:37:13;3.30;;;0.80;;
78209;SDS011;67485;48.816;9.930;2023-03-08T14:39:46;1.33;;;0.70;;
78209;SDS011;67485;48.816;9.930;2023-03-08T14:44:52;4.13;;;1.38;;
78209;SDS011;67485;48.816;9.930;2023-03-08T14:52:43;2.90;;;0.80;;
78209;SDS011;67485;48.816;9.930;2023-03-08T14:55:21;2.90;;;0.70;;
78209;SDS011;67485;48.816;9.930;2023-03-08T14:57:50;2.60;;;1.50;;
78209;SDS011;67485;48.816;9.930;2023-03-08T15:00:18;2.47;;;1.00;;
78209;SDS011;67485;48.816;9.930;2023-03-08T15:02:44;2.50;;;0.82;;
78209;SDS011;67485;48.816;9.930;2023-03-08T15:05:13;2.43;;;0.73;;
78209;SDS011;67485;48.816;9.930;2023-03-08T15:07:40;1.60;;;0.80;;
78209;SDS011;67485;48.816;9.930;2023-03-08T15:10:07;1.75;;;0.60;;
78209;SDS011;67485;48.816;9.930;2023-03-08T15:12:42;1.42;;;0.80;;
78209;SDS011;67485;48.816;9.930;2023-03-08T15:15:10;1.57;;;0.90;;
78209;SDS011;67485;48.816;9.930;2023-03-08T15:17:37;3.90;;;0.88;;
78209;SDS011;67485;48.816;9.930;2023-03-08T15:20:03;5.30;;;1.90;;
78209;SDS011;67485;48.816;9.930;2023-03-08T15:22:30;3.67;;;0.80;;
78209;SDS011;67485;48.816;9.930;2023-03-08T15:24:57;1.38;;;0.70;;
78209;SDS011;67485;48.816;9.930;2023-03-08T15:27:23;1.58;;;0.73;;
78209;SDS011;67485;48.816;9.930;2023-03-08T15:29:49;1.90;;;0.90;;
78209;SDS011;67485;48.816;9.930;2023-03-08T15:32:14;2.38;;;0.75;;
78209;SDS011;67485;48.816;9.930;2023-03-08T15:34:40;2.67;;;0.70;;
78209;SDS011;67485;48.816;9.930;2023-03-08T15:37:05;1.40;;;0.70;;
78209;SDS011;67485;48.816;9.930;2023-03-08T15:39:32;1.63;;;0.70;;
78209;SDS011;67485;48.816;9.930;2023-03-08T15:41:57;1.90;;;0.80;;
78209;SDS011;67485;48.816;9.930;2023-03-08T15:44:24;2.47;;;0.70;;
78209;SDS011;67485;48.816;9.930;2023-03-08T15:46:50;2.08;;;1.02;;
78209;SDS011;67485;48.816;9.930;2023-03-08T15:49:16;4.20;;;0.70;;
78209;SDS011;67485;48.816;9.930;2023-03-08T15:51:41;1.50;;;0.65;;
78209;SDS011;67485;48.816;9.930;2023-03-08T15:54:09;2.55;;;0.70;;
78209;SDS011;67485;48.816;9.930;2023-03-08T15:56:35;3.03;;;0.60;;
78209;SDS011;67485;48.816;9.930;2023-03-08T15:59:00;2.30;;;0.70;;
78209;SDS011;67485;48.816;9.930;2023-03-08T16:01:27;1.20;;;0.60;;
78209;SDS011;67485;48.816;9.930;2023-03-08T16:03:53;1.73;;;0.80;;
78209;SDS011;67485;48.816;9.930;2023-03-08T16:06:20;2.53;;;0.80;;
78209;SDS011;67485;48.816;9.930;2023-03-08T16:08:47;2.15;;;0.80;;
78209;SDS011;67485;48.816;9.930;2023-03-08T16:11:14;1.50;;;0.60;;
78209;SDS011;67485;48.816;9.930;2023-03-08T16:13:41;1.67;;;0.70;;
78209;SDS011;67485;48.816;9.930;2023-03-08T16:16:07;1.83;;;0.70;;
78209;SDS011;67485;48.816;9.930;2023-03-08T16:18:34;2.83;;;0.90;;
78209;SDS011;67485;48.816;9.930;2023-03-08T16:21:04;1.87;;;0.80;;
78209;SDS011;67485;48.816;9.930;2023-03-08T16:23:30;1.25;;;0.75;;